sensor_id;sensor_type;location;lat;lon;timestamp;temperature;humidity
11136;DHT22;5622;50.840;4.948;2022-10-19T00:01:00;11.10;99.90
11136;DHT22;5622;50.840;4.948;2022-10-19T00:03:27;11.10;99.90
11136;DHT22;5622;50.840;4.948;2022-10-19T00:05:55;11.10;99.90
11136;DHT22;5622;50.840;4.948;2022-10-19T00:08:22;11.10;99.90
11136;DHT22;5622;50.840;4.948;2022-10-19T00:10:50;11.10;99.90
11136;DHT22;5622;50.840;4.948;2022-10-19T00:13:17;11.10;99.90
11136;DHT22;5622;50.840;4.948;2022-10-19T00:15:44;11.10;99.90
11136;DHT22;5622;50.840;4.948;2022-10-19T00:18:11;11.10;99.90
11136;DHT22;5622;50.840;4.948;2022-10-19T00:20:38;11.10;99.90
11136;DHT22;5622;50.840;4.948;2022-10-19T00:23:05;11.10;99.90
11136;DHT22;5622;50.840;4.948;2022-10-19T00:25:32;11.10;99.90
11136;DHT22;5622;50.840;4.948;2022-10-19T00:28:01;11.10;99.90
11136;DHT22;5622;50.840;4.948;2022-10-19T00:30:28;11.00;99.90
11136;DHT22;5622;50.840;4.948;2022-10-19T00:32:55;11.00;99.90
11136;DHT22;5622;50.840;4.948;2022-10-19T00:35:22;11.00;99.90
11136;DHT22;5622;50.840;4.948;2022-10-19T00:37:49;11.00;99.90
11136;DHT22;5622;50.840;4.948;2022-10-19T00:40:16;11.10;99.90
11136;DHT22;5622;50.840;4.948;2022-10-19T00:42:43;11.00;99.90
11136;DHT22;5622;50.840;4.948;2022-10-19T00:45:16;11.00;99.90
11136;DHT22;5622;50.840;4.948;2022-10-19T00:47:45;11.00;99.90
11136;DHT22;5622;50.840;4.948;2022-10-19T00:50:13;11.10;99.90
11136;DHT22;5622;50.840;4.948;2022-10-19T00:52:41;11.40;99.90
11136;DHT22;5622;50.840;4.948;2022-10-19T00:55:10;11.10;99.90
11136;DHT22;5622;50.840;4.948;2022-10-19T00:57:38;11.10;99.90
11136;DHT22;5622;50.840;4.948;2022-10-19T01:00:06;11.10;99.90
11136;DHT22;5622;50.840;4.948;2022-10-19T01:02:35;11.10;99.90
11136;DHT22;5622;50.840;4.948;2022-10-19T01:05:03;11.10;99.90
11136;DHT22;5622;50.840;4.948;2022-10-19T01:07:30;11.10;99.90
11136;DHT22;5622;50.840;4.948;2022-10-19T01:09:58;11.10;99.90
11136;DHT22;5622;50.840;4.948;2022-10-19T01:12:42;11.10;99.90
11136;DHT22;5622;50.840;4.948;2022-10-19T01:15:22;11.10;99.90
11136;DHT22;5622;50.840;4.948;2022-10-19T01:17:57;11.00;99.90
11136;DHT22;5622;50.840;4.948;2022-10-19T01:30:08;11.00;99.90
11136;DHT22;5622;50.840;4.948;2022-10-19T01:32:53;11.00;99.90
11136;DHT22;5622;50.840;4.948;2022-10-19T01:35:28;11.00;99.90
11136;DHT22;5622;50.840;4.948;2022-10-19T01:38:06;11.00;99.90
11136;DHT22;5622;50.840;4.948;2022-10-19T01:40:40;10.90;99.90
11136;DHT22;5622;50.840;4.948;2022-10-19T01:43:11;10.90;99.90
11136;DHT22;5622;50.840;4.948;2022-10-19T01:45:47;10.80;99.90
11136;DHT22;5622;50.840;4.948;2022-10-19T01:48:19;10.90;99.90
11136;DHT22;5622;50.840;4.948;2022-10-19T01:50:50;10.80;99.90
11136;DHT22;5622;50.840;4.948;2022-10-19T01:53:20;10.80;99.90
11136;DHT22;5622;50.840;4.948;2022-10-19T01:55:50;10.80;99.90
11136;DHT22;5622;50.840;4.948;2022-10-19T01:58:22;10.70;99.90
11136;DHT22;5622;50.840;4.948;2022-10-19T02:00:52;10.70;99.90
11136;DHT22;5622;50.840;4.948;2022-10-19T02:03:22;10.70;99.90
11136;DHT22;5622;50.840;4.948;2022-10-19T02:05:51;10.70;99.90
11136;DHT22;5622;50.840;4.948;2022-10-19T02:08:22;10.70;99.90
11136;DHT22;5622;50.840;4.948;2022-10-19T02:10:52;10.70;99.90
11136;DHT22;5622;50.840;4.948;2022-10-19T02:13:20;10.60;99.90
11136;DHT22;5622;50.840;4.948;2022-10-19T02:15:50;10.70;99.90
11136;DHT22;5622;50.840;4.948;2022-10-19T02:18:24;11.00;99.90
11136;DHT22;5622;50.840;4.948;2022-10-19T02:20:52;10.60;99.90
11136;DHT22;5622;50.840;4.948;2022-10-19T02:23:22;10.60;99.90
11136;DHT22;5622;50.840;4.948;2022-10-19T02:25:50;10.60;99.90
11136;DHT22;5622;50.840;4.948;2022-10-19T02:28:17;10.60;99.90
11136;DHT22;5622;50.840;4.948;2022-10-19T02:30:45;10.50;99.90
11136;DHT22;5622;50.840;4.948;2022-10-19T02:33:12;10.50;99.90
11136;DHT22;5622;50.840;4.948;2022-10-19T02:35:41;10.50;99.90
11136;DHT22;5622;50.840;4.948;2022-10-19T02:38:10;10.40;99.90
11136;DHT22;5622;50.840;4.948;2022-10-19T02:40:40;10.40;99.90
11136;DHT22;5622;50.840;4.948;2022-10-19T02:43:11;10.40;99.90
11136;DHT22;5622;50.840;4.948;2022-10-19T02:45:43;10.50;99.90
11136;DHT22;5622;50.840;4.948;2022-10-19T02:48:17;10.40;99.90
11136;DHT22;5622;50.840;4.948;2022-10-19T02:50:46;10.50;99.90
11136;DHT22;5622;50.840;4.948;2022-10-19T02:53:14;10.50;99.90
11136;DHT22;5622;50.840;4.948;2022-10-19T02:55:41;10.50;99.90
11136;DHT22;5622;50.840;4.948;2022-10-19T02:58:09;10.50;99.90
11136;DHT22;5622;50.840;4.948;2022-10-19T03:00:36;10.50;99.90
11136;DHT22;5622;50.840;4.948;2022-10-19T03:03:03;10.50;99.90
11136;DHT22;5622;50.840;4.948;2022-10-19T03:05:30;10.50;99.90
11136;DHT22;5622;50.840;4.948;2022-10-19T03:07:58;10.60;99.90
11136;DHT22;5622;50.840;4.948;2022-10-19T03:10:25;10.50;99.90
11136;DHT22;5622;50.840;4.948;2022-10-19T03:12:53;10.60;99.90
11136;DHT22;5622;50.840;4.948;2022-10-19T03:15:22;10.60;99.90
11136;DHT22;5622;50.840;4.948;2022-10-19T03:17:53;10.60;99.90
11136;DHT22;5622;50.840;4.948;2022-10-19T03:20:21;10.60;99.90
11136;DHT22;5622;50.840;4.948;2022-10-19T03:22:48;10.60;99.90
11136;DHT22;5622;50.840;4.948;2022-10-19T03:25:17;10.50;99.90
11136;DHT22;5622;50.840;4.948;2022-10-19T03:27:44;10.60;99.90
11136;DHT22;5622;50.840;4.948;2022-10-19T03:30:11;10.60;99.90
11136;DHT22;5622;50.840;4.948;2022-10-19T03:32:38;10.80;99.90
11136;DHT22;5622;50.840;4.948;2022-10-19T03:35:06;10.50;99.90
11136;DHT22;5622;50.840;4.948;2022-10-19T03:37:33;10.50;99.90
11136;DHT22;5622;50.840;4.948;2022-10-19T03:40:00;10.50;99.90
11136;DHT22;5622;50.840;4.948;2022-10-19T03:42:29;10.50;99.90
11136;DHT22;5622;50.840;4.948;2022-10-19T03:44:56;10.80;99.90
11136;DHT22;5622;50.840;4.948;2022-10-19T03:47:23;10.50;99.90
11136;DHT22;5622;50.840;4.948;2022-10-19T03:49:50;10.50;99.90
11136;DHT22;5622;50.840;4.948;2022-10-19T03:52:17;10.50;99.90
11136;DHT22;5622;50.840;4.948;2022-10-19T03:54:45;10.50;99.90
11136;DHT22;5622;50.840;4.948;2022-10-19T03:57:12;10.50;99.90
11136;DHT22;5622;50.840;4.948;2022-10-19T03:59:40;10.40;99.90
11136;DHT22;5622;50.840;4.948;2022-10-19T04:02:07;10.40;99.90
11136;DHT22;5622;50.840;4.948;2022-10-19T04:04:34;10.40;99.90
11136;DHT22;5622;50.840;4.948;2022-10-19T04:07:01;10.40;99.90
11136;DHT22;5622;50.840;4.948;2022-10-19T04:09:28;10.40;99.90
11136;DHT22;5622;50.840;4.948;2022-10-19T04:11:55;10.40;99.90
11136;DHT22;5622;50.840;4.948;2022-10-19T04:14:22;10.40;99.90
11136;DHT22;5622;50.840;4.948;2022-10-19T04:16:51;10.40;99.90
11136;DHT22;5622;50.840;4.948;2022-10-19T04:19:18;10.40;99.90
11136;DHT22;5622;50.840;4.948;2022-10-19T04:21:47;10.40;99.90
11136;DHT22;5622;50.840;4.948;2022-10-19T04:24:17;10.40;99.90
11136;DHT22;5622;50.840;4.948;2022-10-19T04:26:45;10.30;99.90
11136;DHT22;5622;50.840;4.948;2022-10-19T04:29:13;10.40;99.90
11136;DHT22;5622;50.840;4.948;2022-10-19T04:31:41;10.40;99.90
11136;DHT22;5622;50.840;4.948;2022-10-19T04:34:09;10.30;99.90
11136;DHT22;5622;50.840;4.948;2022-10-19T04:36:37;10.30;99.90
11136;DHT22;5622;50.840;4.948;2022-10-19T04:39:04;10.30;99.90
11136;DHT22;5622;50.840;4.948;2022-10-19T04:41:32;10.30;99.90
11136;DHT22;5622;50.840;4.948;2022-10-19T04:44:01;10.30;99.90
11136;DHT22;5622;50.840;4.948;2022-10-19T04:46:29;10.30;99.90
11136;DHT22;5622;50.840;4.948;2022-10-19T04:48:57;10.30;99.90
11136;DHT22;5622;50.840;4.948;2022-10-19T04:51:26;10.30;99.90
11136;DHT22;5622;50.840;4.948;2022-10-19T04:53:53;10.30;99.90
11136;DHT22;5622;50.840;4.948;2022-10-19T04:56:23;10.30;99.90
11136;DHT22;5622;50.840;4.948;2022-10-19T04:58:54;10.30;99.90
11136;DHT22;5622;50.840;4.948;2022-10-19T05:01:23;10.30;99.90
11136;DHT22;5622;50.840;4.948;2022-10-19T05:03:53;10.20;99.90
11136;DHT22;5622;50.840;4.948;2022-10-19T05:06:20;10.20;99.90
11136;DHT22;5622;50.840;4.948;2022-10-19T05:08:49;10.30;99.90
11136;DHT22;5622;50.840;4.948;2022-10-19T05:11:17;10.20;99.90
11136;DHT22;5622;50.840;4.948;2022-10-19T05:13:45;10.20;99.90
11136;DHT22;5622;50.840;4.948;2022-10-19T05:16:13;10.40;99.90
11136;DHT22;5622;50.840;4.948;2022-10-19T05:18:41;10.20;99.90
11136;DHT22;5622;50.840;4.948;2022-10-19T05:21:10;10.40;99.90
11136;DHT22;5622;50.840;4.948;2022-10-19T05:23:38;10.20;99.90
11136;DHT22;5622;50.840;4.948;2022-10-19T05:26:08;10.20;99.90
11136;DHT22;5622;50.840;4.948;2022-10-19T05:28:35;10.20;99.90
11136;DHT22;5622;50.840;4.948;2022-10-19T05:31:07;10.20;99.90
11136;DHT22;5622;50.840;4.948;2022-10-19T05:33:35;10.20;99.90
11136;DHT22;5622;50.840;4.948;2022-10-19T05:36:14;10.10;99.90
11136;DHT22;5622;50.840;4.948;2022-10-19T05:38:41;10.10;99.90
11136;DHT22;5622;50.840;4.948;2022-10-19T05:41:11;10.10;99.90
11136;DHT22;5622;50.840;4.948;2022-10-19T05:43:38;10.10;99.90
11136;DHT22;5622;50.840;4.948;2022-10-19T05:46:08;10.10;99.90
11136;DHT22;5622;50.840;4.948;2022-10-19T05:48:35;10.10;99.90
11136;DHT22;5622;50.840;4.948;2022-10-19T05:51:03;10.10;99.90
11136;DHT22;5622;50.840;4.948;2022-10-19T05:53:32;10.00;99.90
11136;DHT22;5622;50.840;4.948;2022-10-19T05:55:59;10.10;99.90
11136;DHT22;5622;50.840;4.948;2022-10-19T05:58:29;10.00;99.90
11136;DHT22;5622;50.840;4.948;2022-10-19T06:00:57;10.00;99.90
11136;DHT22;5622;50.840;4.948;2022-10-19T06:03:25;10.00;99.90
11136;DHT22;5622;50.840;4.948;2022-10-19T06:05:54;10.00;99.90
11136;DHT22;5622;50.840;4.948;2022-10-19T06:08:22;10.00;99.90
11136;DHT22;5622;50.840;4.948;2022-10-19T06:10:50;9.90;99.90
11136;DHT22;5622;50.840;4.948;2022-10-19T06:13:18;10.00;99.90
11136;DHT22;5622;50.840;4.948;2022-10-19T06:15:49;10.00;99.90
11136;DHT22;5622;50.840;4.948;2022-10-19T06:18:16;9.90;99.90
11136;DHT22;5622;50.840;4.948;2022-10-19T06:20:44;9.90;99.90
11136;DHT22;5622;50.840;4.948;2022-10-19T06:23:11;9.90;99.90
11136;DHT22;5622;50.840;4.948;2022-10-19T06:25:39;9.90;99.90
11136;DHT22;5622;50.840;4.948;2022-10-19T06:28:07;9.90;99.90
11136;DHT22;5622;50.840;4.948;2022-10-19T06:30:37;9.90;99.90
11136;DHT22;5622;50.840;4.948;2022-10-19T06:33:06;9.90;99.90
11136;DHT22;5622;50.840;4.948;2022-10-19T06:35:34;9.90;99.90
11136;DHT22;5622;50.840;4.948;2022-10-19T06:38:02;9.90;99.90
11136;DHT22;5622;50.840;4.948;2022-10-19T06:40:30;10.00;99.90
11136;DHT22;5622;50.840;4.948;2022-10-19T06:42:57;9.90;99.90
11136;DHT22;5622;50.840;4.948;2022-10-19T06:45:24;10.00;99.90
11136;DHT22;5622;50.840;4.948;2022-10-19T06:47:51;10.00;99.90
11136;DHT22;5622;50.840;4.948;2022-10-19T06:50:19;10.00;99.90
11136;DHT22;5622;50.840;4.948;2022-10-19T06:52:47;10.00;99.90
11136;DHT22;5622;50.840;4.948;2022-10-19T06:55:14;10.00;99.90
11136;DHT22;5622;50.840;4.948;2022-10-19T06:57:42;10.00;99.90
11136;DHT22;5622;50.840;4.948;2022-10-19T07:00:11;10.00;99.90
11136;DHT22;5622;50.840;4.948;2022-10-19T07:02:38;10.10;99.90
11136;DHT22;5622;50.840;4.948;2022-10-19T07:05:06;10.10;99.90
11136;DHT22;5622;50.840;4.948;2022-10-19T07:07:35;10.10;99.90
11136;DHT22;5622;50.840;4.948;2022-10-19T07:10:02;10.10;99.90
11136;DHT22;5622;50.840;4.948;2022-10-19T07:12:29;10.10;99.90
11136;DHT22;5622;50.840;4.948;2022-10-19T07:14:56;10.20;99.90
11136;DHT22;5622;50.840;4.948;2022-10-19T07:17:24;10.20;99.90
11136;DHT22;5622;50.840;4.948;2022-10-19T07:19:51;10.20;99.90
11136;DHT22;5622;50.840;4.948;2022-10-19T07:22:18;10.20;99.90
11136;DHT22;5622;50.840;4.948;2022-10-19T07:24:46;10.30;99.90
11136;DHT22;5622;50.840;4.948;2022-10-19T07:27:13;10.30;99.90
11136;DHT22;5622;50.840;4.948;2022-10-19T07:29:41;10.30;99.90
11136;DHT22;5622;50.840;4.948;2022-10-19T07:32:08;10.40;99.90
11136;DHT22;5622;50.840;4.948;2022-10-19T07:34:35;10.40;99.90
11136;DHT22;5622;50.840;4.948;2022-10-19T07:37:02;10.40;99.90
11136;DHT22;5622;50.840;4.948;2022-10-19T07:39:30;10.40;99.90
11136;DHT22;5622;50.840;4.948;2022-10-19T07:41:58;10.50;99.90
11136;DHT22;5622;50.840;4.948;2022-10-19T07:44:25;10.50;99.90
11136;DHT22;5622;50.840;4.948;2022-10-19T07:46:52;10.60;99.90
11136;DHT22;5622;50.840;4.948;2022-10-19T07:49:19;10.60;99.90
11136;DHT22;5622;50.840;4.948;2022-10-19T07:51:47;10.70;99.90
11136;DHT22;5622;50.840;4.948;2022-10-19T07:54:18;11.00;99.90
11136;DHT22;5622;50.840;4.948;2022-10-19T07:56:46;11.20;99.90
11136;DHT22;5622;50.840;4.948;2022-10-19T07:59:14;11.50;99.90
11136;DHT22;5622;50.840;4.948;2022-10-19T08:01:42;11.70;99.90
11136;DHT22;5622;50.840;4.948;2022-10-19T08:04:09;11.90;99.90
11136;DHT22;5622;50.840;4.948;2022-10-19T08:06:36;11.90;99.90
11136;DHT22;5622;50.840;4.948;2022-10-19T08:09:04;12.00;99.90
11136;DHT22;5622;50.840;4.948;2022-10-19T08:11:33;11.90;99.90
11136;DHT22;5622;50.840;4.948;2022-10-19T08:14:00;11.90;99.90
11136;DHT22;5622;50.840;4.948;2022-10-19T08:16:31;11.80;99.90
11136;DHT22;5622;50.840;4.948;2022-10-19T08:19:00;11.80;99.90
11136;DHT22;5622;50.840;4.948;2022-10-19T08:21:28;11.70;99.90
11136;DHT22;5622;50.840;4.948;2022-10-19T08:23:56;11.70;99.90
11136;DHT22;5622;50.840;4.948;2022-10-19T08:26:24;11.70;99.90
11136;DHT22;5622;50.840;4.948;2022-10-19T08:28:52;11.70;99.90
11136;DHT22;5622;50.840;4.948;2022-10-19T08:31:21;11.70;99.90
11136;DHT22;5622;50.840;4.948;2022-10-19T08:33:51;11.70;99.90
11136;DHT22;5622;50.840;4.948;2022-10-19T08:36:18;11.80;99.90
11136;DHT22;5622;50.840;4.948;2022-10-19T08:38:46;11.80;99.90
11136;DHT22;5622;50.840;4.948;2022-10-19T08:41:21;11.80;99.90
11136;DHT22;5622;50.840;4.948;2022-10-19T08:44:26;11.90;99.90
11136;DHT22;5622;50.840;4.948;2022-10-19T08:47:01;12.00;99.90
11136;DHT22;5622;50.840;4.948;2022-10-19T08:49:32;12.00;99.90
11136;DHT22;5622;50.840;4.948;2022-10-19T08:52:01;12.10;99.90
11136;DHT22;5622;50.840;4.948;2022-10-19T08:54:36;12.10;99.90
11136;DHT22;5622;50.840;4.948;2022-10-19T08:57:12;12.10;99.90
11136;DHT22;5622;50.840;4.948;2022-10-19T08:59:45;12.10;99.90
11136;DHT22;5622;50.840;4.948;2022-10-19T09:02:18;12.20;99.90
11136;DHT22;5622;50.840;4.948;2022-10-19T09:04:51;12.30;99.90
11136;DHT22;5622;50.840;4.948;2022-10-19T09:07:25;12.30;99.90
11136;DHT22;5622;50.840;4.948;2022-10-19T09:09:55;12.30;99.90
11136;DHT22;5622;50.840;4.948;2022-10-19T09:12:41;12.40;99.90
11136;DHT22;5622;50.840;4.948;2022-10-19T09:15:12;12.40;99.90
11136;DHT22;5622;50.840;4.948;2022-10-19T09:17:39;12.50;99.90
11136;DHT22;5622;50.840;4.948;2022-10-19T09:20:16;12.50;99.90
11136;DHT22;5622;50.840;4.948;2022-10-19T09:22:44;12.50;99.90
11136;DHT22;5622;50.840;4.948;2022-10-19T09:25:19;12.60;99.90
11136;DHT22;5622;50.840;4.948;2022-10-19T09:27:48;12.60;99.90
11136;DHT22;5622;50.840;4.948;2022-10-19T09:30:20;12.70;99.90
11136;DHT22;5622;50.840;4.948;2022-10-19T09:32:50;12.80;99.90
11136;DHT22;5622;50.840;4.948;2022-10-19T09:35:28;12.80;99.90
11136;DHT22;5622;50.840;4.948;2022-10-19T09:37:56;12.90;99.90
11136;DHT22;5622;50.840;4.948;2022-10-19T09:40:25;12.90;99.90
11136;DHT22;5622;50.840;4.948;2022-10-19T09:42:53;13.00;99.90
11136;DHT22;5622;50.840;4.948;2022-10-19T09:45:33;13.00;99.90
11136;DHT22;5622;50.840;4.948;2022-10-19T09:48:03;13.00;99.90
11136;DHT22;5622;50.840;4.948;2022-10-19T09:50:42;13.10;99.90
11136;DHT22;5622;50.840;4.948;2022-10-19T09:53:16;13.10;99.90
11136;DHT22;5622;50.840;4.948;2022-10-19T09:55:47;13.20;99.90
11136;DHT22;5622;50.840;4.948;2022-10-19T09:58:18;13.20;99.90
11136;DHT22;5622;50.840;4.948;2022-10-19T10:00:47;13.20;99.90
11136;DHT22;5622;50.840;4.948;2022-10-19T10:03:24;13.30;99.90
11136;DHT22;5622;50.840;4.948;2022-10-19T10:05:55;13.40;99.90
11136;DHT22;5622;50.840;4.948;2022-10-19T10:08:25;13.50;99.90
11136;DHT22;5622;50.840;4.948;2022-10-19T10:10:57;13.70;99.90
11136;DHT22;5622;50.840;4.948;2022-10-19T10:13:26;13.90;99.90
11136;DHT22;5622;50.840;4.948;2022-10-19T10:15:57;14.10;99.90
11136;DHT22;5622;50.840;4.948;2022-10-19T10:18:26;14.40;99.90
11136;DHT22;5622;50.840;4.948;2022-10-19T10:21:04;14.70;99.90
11136;DHT22;5622;50.840;4.948;2022-10-19T10:23:37;15.00;99.90
11136;DHT22;5622;50.840;4.948;2022-10-19T10:26:13;15.20;99.90
11136;DHT22;5622;50.840;4.948;2022-10-19T10:28:46;15.50;99.90
11136;DHT22;5622;50.840;4.948;2022-10-19T10:31:14;15.80;99.90
11136;DHT22;5622;50.840;4.948;2022-10-19T10:33:53;15.90;99.90
11136;DHT22;5622;50.840;4.948;2022-10-19T10:36:26;16.10;99.90
11136;DHT22;5622;50.840;4.948;2022-10-19T10:38:57;16.30;99.90
11136;DHT22;5622;50.840;4.948;2022-10-19T10:41:28;16.30;99.90
11136;DHT22;5622;50.840;4.948;2022-10-19T10:43:59;16.30;99.90
11136;DHT22;5622;50.840;4.948;2022-10-19T10:46:32;16.30;99.90
11136;DHT22;5622;50.840;4.948;2022-10-19T10:49:02;16.10;99.90
11136;DHT22;5622;50.840;4.948;2022-10-19T10:51:37;16.00;99.90
11136;DHT22;5622;50.840;4.948;2022-10-19T10:54:18;15.90;99.90
11136;DHT22;5622;50.840;4.948;2022-10-19T10:57:02;15.70;99.90
11136;DHT22;5622;50.840;4.948;2022-10-19T10:59:33;15.60;99.90
11136;DHT22;5622;50.840;4.948;2022-10-19T11:02:16;15.50;99.90
11136;DHT22;5622;50.840;4.948;2022-10-19T11:04:47;15.40;99.90
11136;DHT22;5622;50.840;4.948;2022-10-19T11:07:20;15.40;99.90
11136;DHT22;5622;50.840;4.948;2022-10-19T11:09:52;15.30;99.90
11136;DHT22;5622;50.840;4.948;2022-10-19T11:12:32;15.20;99.90
11136;DHT22;5622;50.840;4.948;2022-10-19T11:15:05;15.20;99.90
11136;DHT22;5622;50.840;4.948;2022-10-19T11:17:40;15.20;99.90
11136;DHT22;5622;50.840;4.948;2022-10-19T11:20:13;15.20;99.90
11136;DHT22;5622;50.840;4.948;2022-10-19T11:22:47;15.20;99.90
11136;DHT22;5622;50.840;4.948;2022-10-19T11:25:26;15.20;99.90
11136;DHT22;5622;50.840;4.948;2022-10-19T11:28:03;15.20;99.90
11136;DHT22;5622;50.840;4.948;2022-10-19T11:30:40;15.20;99.90
11136;DHT22;5622;50.840;4.948;2022-10-19T11:33:19;15.20;99.90
11136;DHT22;5622;50.840;4.948;2022-10-19T11:35:51;15.20;99.90
11136;DHT22;5622;50.840;4.948;2022-10-19T11:38:31;15.30;99.90
11136;DHT22;5622;50.840;4.948;2022-10-19T11:41:09;15.30;99.90
11136;DHT22;5622;50.840;4.948;2022-10-19T11:43:41;15.30;99.90
11136;DHT22;5622;50.840;4.948;2022-10-19T11:46:17;15.40;99.90
11136;DHT22;5622;50.840;4.948;2022-10-19T11:48:59;15.40;99.90
11136;DHT22;5622;50.840;4.948;2022-10-19T11:51:35;15.40;99.90
11136;DHT22;5622;50.840;4.948;2022-10-19T11:54:25;15.40;99.90
11136;DHT22;5622;50.840;4.948;2022-10-19T11:56:59;15.40;99.90
11136;DHT22;5622;50.840;4.948;2022-10-19T11:59:39;15.40;99.90
11136;DHT22;5622;50.840;4.948;2022-10-19T12:05:04;15.40;99.90
11136;DHT22;5622;50.840;4.948;2022-10-19T12:07:47;15.40;99.90
11136;DHT22;5622;50.840;4.948;2022-10-19T12:10:26;15.40;99.90
11136;DHT22;5622;50.840;4.948;2022-10-19T12:12:56;15.40;99.90
11136;DHT22;5622;50.840;4.948;2022-10-19T12:15:28;15.40;99.90
11136;DHT22;5622;50.840;4.948;2022-10-19T12:18:02;15.50;99.90
11136;DHT22;5622;50.840;4.948;2022-10-19T12:20:33;15.50;99.90
11136;DHT22;5622;50.840;4.948;2022-10-19T12:23:12;15.50;99.90
11136;DHT22;5622;50.840;4.948;2022-10-19T12:25:43;15.50;99.90
11136;DHT22;5622;50.840;4.948;2022-10-19T12:28:19;15.60;99.90
11136;DHT22;5622;50.840;4.948;2022-10-19T12:30:50;15.60;99.90
11136;DHT22;5622;50.840;4.948;2022-10-19T12:33:21;15.60;99.90
11136;DHT22;5622;50.840;4.948;2022-10-19T12:36:17;15.60;99.90
11136;DHT22;5622;50.840;4.948;2022-10-19T12:38:51;15.70;99.90
11136;DHT22;5622;50.840;4.948;2022-10-19T12:41:28;15.70;99.90
11136;DHT22;5622;50.840;4.948;2022-10-19T12:44:10;15.70;99.90
11136;DHT22;5622;50.840;4.948;2022-10-19T12:46:40;15.70;99.90
11136;DHT22;5622;50.840;4.948;2022-10-19T12:49:34;15.70;99.90
11136;DHT22;5622;50.840;4.948;2022-10-19T12:52:03;15.70;99.90
11136;DHT22;5622;50.840;4.948;2022-10-19T12:54:35;15.80;99.90
11136;DHT22;5622;50.840;4.948;2022-10-19T12:57:28;15.80;99.90
11136;DHT22;5622;50.840;4.948;2022-10-19T13:00:02;15.80;99.90
11136;DHT22;5622;50.840;4.948;2022-10-19T13:02:32;15.90;99.90
11136;DHT22;5622;50.840;4.948;2022-10-19T13:05:00;15.90;99.90
11136;DHT22;5622;50.840;4.948;2022-10-19T13:07:34;16.00;99.90
11136;DHT22;5622;50.840;4.948;2022-10-19T13:10:04;16.00;99.90
11136;DHT22;5622;50.840;4.948;2022-10-19T13:12:46;16.00;99.90
11136;DHT22;5622;50.840;4.948;2022-10-19T13:21:53;16.00;99.90
11136;DHT22;5622;50.840;4.948;2022-10-19T13:24:29;16.00;99.90
11136;DHT22;5622;50.840;4.948;2022-10-19T13:27:27;16.00;99.90
11136;DHT22;5622;50.840;4.948;2022-10-19T13:29:55;16.00;99.90
11136;DHT22;5622;50.840;4.948;2022-10-19T13:32:31;16.00;99.90
11136;DHT22;5622;50.840;4.948;2022-10-19T13:35:28;16.10;99.90
11136;DHT22;5622;50.840;4.948;2022-10-19T13:38:24;16.10;99.90
11136;DHT22;5622;50.840;4.948;2022-10-19T13:41:05;16.10;99.90
11136;DHT22;5622;50.840;4.948;2022-10-19T13:43:36;16.10;99.90
11136;DHT22;5622;50.840;4.948;2022-10-19T13:46:09;16.10;99.90
11136;DHT22;5622;50.840;4.948;2022-10-19T13:51:30;16.10;99.90
11136;DHT22;5622;50.840;4.948;2022-10-19T13:54:08;16.00;99.90
11136;DHT22;5622;50.840;4.948;2022-10-19T13:56:49;16.00;99.90
11136;DHT22;5622;50.840;4.948;2022-10-19T13:59:41;16.00;99.90
11136;DHT22;5622;50.840;4.948;2022-10-19T14:05:58;16.00;99.90
11136;DHT22;5622;50.840;4.948;2022-10-19T14:08:43;16.00;99.90
11136;DHT22;5622;50.840;4.948;2022-10-19T14:11:17;16.00;99.90
11136;DHT22;5622;50.840;4.948;2022-10-19T14:13:45;16.00;99.90
11136;DHT22;5622;50.840;4.948;2022-10-19T14:16:17;16.00;99.90
11136;DHT22;5622;50.840;4.948;2022-10-19T14:18:52;15.90;99.90
11136;DHT22;5622;50.840;4.948;2022-10-19T14:21:32;16.00;99.90
11136;DHT22;5622;50.840;4.948;2022-10-19T14:24:01;16.00;99.90
11136;DHT22;5622;50.840;4.948;2022-10-19T14:26:30;15.90;99.90
11136;DHT22;5622;50.840;4.948;2022-10-19T14:28:58;15.90;99.90
11136;DHT22;5622;50.840;4.948;2022-10-19T14:31:32;15.90;99.90
11136;DHT22;5622;50.840;4.948;2022-10-19T14:34:02;15.90;99.90
11136;DHT22;5622;50.840;4.948;2022-10-19T14:36:34;15.90;99.90
11136;DHT22;5622;50.840;4.948;2022-10-19T14:39:02;15.80;99.90
11136;DHT22;5622;50.840;4.948;2022-10-19T14:41:30;15.80;99.90
11136;DHT22;5622;50.840;4.948;2022-10-19T14:44:32;15.80;99.90
11136;DHT22;5622;50.840;4.948;2022-10-19T14:46:48;15.80;99.90
11136;DHT22;5622;50.840;4.948;2022-10-19T14:49:16;15.80;99.90
11136;DHT22;5622;50.840;4.948;2022-10-19T14:51:47;15.90;99.90
11136;DHT22;5622;50.840;4.948;2022-10-19T14:54:21;15.80;99.90
11136;DHT22;5622;50.840;4.948;2022-10-19T14:56:56;15.80;99.90
11136;DHT22;5622;50.840;4.948;2022-10-19T14:59:28;15.80;99.90
11136;DHT22;5622;50.840;4.948;2022-10-19T15:01:59;15.80;99.90
11136;DHT22;5622;50.840;4.948;2022-10-19T15:04:29;15.80;99.90
11136;DHT22;5622;50.840;4.948;2022-10-19T15:07:00;15.80;99.90
11136;DHT22;5622;50.840;4.948;2022-10-19T15:09:31;15.70;99.90
11136;DHT22;5622;50.840;4.948;2022-10-19T15:12:05;15.70;99.90
11136;DHT22;5622;50.840;4.948;2022-10-19T15:14:34;15.70;99.90
11136;DHT22;5622;50.840;4.948;2022-10-19T15:17:04;15.70;99.90
11136;DHT22;5622;50.840;4.948;2022-10-19T15:19:45;15.60;99.90
11136;DHT22;5622;50.840;4.948;2022-10-19T15:22:17;15.60;99.90
11136;DHT22;5622;50.840;4.948;2022-10-19T15:24:57;15.60;99.90
11136;DHT22;5622;50.840;4.948;2022-10-19T15:27:32;15.60;99.90
11136;DHT22;5622;50.840;4.948;2022-10-19T15:30:04;15.60;99.90
11136;DHT22;5622;50.840;4.948;2022-10-19T15:32:33;15.50;99.90
11136;DHT22;5622;50.840;4.948;2022-10-19T15:35:09;15.50;99.90
11136;DHT22;5622;50.840;4.948;2022-10-19T15:37:39;15.40;99.90
11136;DHT22;5622;50.840;4.948;2022-10-19T15:40:09;15.40;99.90
11136;DHT22;5622;50.840;4.948;2022-10-19T15:42:39;15.00;99.90
11136;DHT22;5622;50.840;4.948;2022-10-19T15:45:28;15.30;99.90
11136;DHT22;5622;50.840;4.948;2022-10-19T15:48:26;15.30;99.90
11136;DHT22;5622;50.840;4.948;2022-10-19T15:50:55;15.30;99.90
11136;DHT22;5622;50.840;4.948;2022-10-19T15:53:25;15.20;99.90
11136;DHT22;5622;50.840;4.948;2022-10-19T15:55:53;15.20;99.90
11136;DHT22;5622;50.840;4.948;2022-10-19T15:58:20;15.10;99.90
11136;DHT22;5622;50.840;4.948;2022-10-19T16:00:47;15.10;99.90
11136;DHT22;5622;50.840;4.948;2022-10-19T16:03:14;15.10;99.90
11136;DHT22;5622;50.840;4.948;2022-10-19T16:05:41;15.10;99.90
11136;DHT22;5622;50.840;4.948;2022-10-19T16:08:09;15.10;99.90
11136;DHT22;5622;50.840;4.948;2022-10-19T16:10:38;15.00;99.90
11136;DHT22;5622;50.840;4.948;2022-10-19T16:13:05;15.00;99.90
11136;DHT22;5622;50.840;4.948;2022-10-19T16:15:32;15.00;99.90
11136;DHT22;5622;50.840;4.948;2022-10-19T16:18:00;15.00;99.90
11136;DHT22;5622;50.840;4.948;2022-10-19T16:20:28;14.90;99.90
11136;DHT22;5622;50.840;4.948;2022-10-19T16:22:55;14.90;99.90
11136;DHT22;5622;50.840;4.948;2022-10-19T16:25:23;14.90;99.90
11136;DHT22;5622;50.840;4.948;2022-10-19T16:27:51;14.90;99.90
11136;DHT22;5622;50.840;4.948;2022-10-19T16:30:19;14.90;99.90
11136;DHT22;5622;50.840;4.948;2022-10-19T16:32:47;14.80;99.90
11136;DHT22;5622;50.840;4.948;2022-10-19T16:35:14;14.80;99.90
11136;DHT22;5622;50.840;4.948;2022-10-19T16:37:42;14.80;99.90